Time;durP1;ratioP1;P1;durP2;ratioP2;P2;SDS_P1;SDS_P2;PMS_P1;PMS_P2;Temp;Humidity;BMP_temperature;BMP_pressure;BME280_temperature;BME280_humidity;BME280_pressure;Samples;Min_cycle;Max_cycle;Signal;HPM_P1;HPM_P2
2022/04/25 00:01:26;;;;;;;4.50;2.95;;;9.60;99.90;;;;;;5041335;28;20037;-77
2022/04/25 00:03:51;;;;;;;5.15;3.90;;;9.60;99.90;;;;;;5042209;28;20044;-77
2022/04/25 00:06:17;;;;;;;3.65;2.58;;;9.60;99.90;;;;;;5041903;28;20351;-78
2022/04/25 00:08:43;;;;;;;4.35;3.15;;;9.70;99.90;;;;;;5042144;28;20205;-77
2022/04/25 00:11:08;;;;;;;5.45;3.30;;;9.60;99.90;;;;;;5041243;28;20085;-76
2022/04/25 00:13:34;;;;;;;4.60;2.75;;;9.60;99.90;;;;;;5042281;28;20340;-77
2022/04/25 00:16:00;;;;;;;5.65;3.50;;;9.60;99.90;;;;;;5040707;28;20033;-76
2022/04/25 00:18:26;;;;;;;6.78;3.72;;;9.60;99.90;;;;;;5042122;28;20301;-76
2022/04/25 00:20:52;;;;;;;5.88;3.47;;;9.60;99.90;;;;;;5049649;28;20017;-76
2022/04/25 00:23:18;;;;;;;6.93;4.10;;;9.50;99.90;;;;;;5042236;28;20037;-76
2022/04/25 00:25:43;;;;;;;6.43;3.65;;;9.60;99.90;;;;;;5041668;28;20017;-76
2022/04/25 00:28:09;;;;;;;6.03;4.05;;;9.60;99.90;;;;;;5041832;28;20059;-76
2022/04/25 00:30:35;;;;;;;7.35;4.57;;;9.60;99.90;;;;;;5041454;28;20053;-76
2022/04/25 00:33:01;;;;;;;7.22;4.50;;;9.60;99.90;;;;;;5041555;28;20045;-77
2022/04/25 00:35:27;;;;;;;8.43;4.60;;;9.60;99.90;;;;;;5050322;28;20021;-76
2022/04/25 00:37:53;;;;;;;7.07;4.15;;;9.60;99.90;;;;;;5060395;28;20138;-77
2022/04/25 00:40:21;;;;;;;7.82;5.15;;;9.60;99.90;;;;;;5061254;28;20017;-75
2022/04/25 00:42:48;;;;;;;11.98;6.07;;;9.60;99.90;;;;;;5061170;28;20110;-76
2022/04/25 00:45:14;;;;;;;9.82;5.20;;;9.60;99.90;;;;;;5061585;28;20017;-76
2022/04/25 00:47:41;;;;;;;9.50;5.63;;;9.60;99.90;;;;;;5061796;28;20028;-76
2022/04/25 00:50:08;;;;;;;12.85;6.75;;;9.60;99.90;;;;;;5060712;28;20044;-77
2022/04/25 00:52:34;;;;;;;11.73;7.05;;;9.60;99.90;;;;;;5061477;28;20054;-76
2022/04/25 00:55:02;;;;;;;15.52;6.63;;;9.60;99.90;;;;;;5061631;28;20515;-76
2022/04/25 00:57:28;;;;;;;14.73;6.72;;;9.60;99.90;;;;;;5061329;28;20237;-76
2022/04/25 00:59:58;;;;;;;16.27;7.70;;;9.60;99.90;;;;;;5061206;28;20123;-76
2022/04/25 01:02:26;;;;;;;14.75;7.03;;;9.60;99.90;;;;;;5059629;28;20027;-76
2022/04/25 01:04:53;;;;;;;14.02;7.30;;;9.60;99.90;;;;;;5061600;28;20144;-76
2022/04/25 01:07:19;;;;;;;14.20;7.65;;;9.60;99.90;;;;;;5060982;28;20377;-76
2022/04/25 01:09:45;;;;;;;15.38;7.95;;;9.60;99.90;;;;;;5076688;28;20028;-76
2022/04/25 01:12:11;;;;;;;16.13;7.07;;;9.60;99.90;;;;;;5060532;28;20453;-76
2022/04/25 01:14:36;;;;;;;15.52;8.40;;;9.60;99.90;;;;;;5061098;28;20049;-75
2022/04/25 01:17:03;;;;;;;17.60;7.20;;;9.60;99.90;;;;;;5060928;28;20025;-76
2022/04/25 01:19:29;;;;;;;16.85;8.35;;;9.60;99.90;;;;;;5061300;28;20024;-76
2022/04/25 01:22:01;;;;;;;16.10;8.73;;;9.60;99.90;;;;;;5060560;28;20021;-76
2022/04/25 01:27:18;;;;;;;18.27;9.02;;;9.60;99.90;;;;;;5060654;28;20068;-76
2022/04/25 01:29:55;;;;;;;19.55;8.95;;;9.60;99.90;;;;;;5061203;28;20329;-76
2022/04/25 01:32:22;;;;;;;21.00;9.25;;;9.70;99.90;;;;;;5060241;28;20029;-77
2022/04/25 01:34:49;;;;;;;18.63;8.93;;;9.60;99.90;;;;;;5060503;28;20028;-76
2022/04/25 01:37:20;;;;;;;16.50;9.18;;;9.60;99.90;;;;;;5058927;28;20088;-77
2022/04/25 01:39:48;;;;;;;22.02;8.25;;;9.60;99.90;;;;;;5060021;28;20017;-76
2022/04/25 01:42:14;;;;;;;14.00;7.22;;;9.60;99.90;;;;;;5062173;28;20035;-76
2022/04/25 01:44:40;;;;;;;15.63;6.38;;;9.60;99.90;;;;;;5061927;28;20211;-77
2022/04/25 01:47:07;;;;;;;12.90;7.35;;;9.70;99.90;;;;;;5062107;28;20040;-76
2022/04/25 01:49:34;;;;;;;14.77;7.35;;;9.70;99.90;;;;;;5060311;28;20029;-76
2022/04/25 01:52:20;;;;;;;14.18;7.95;;;9.60;99.90;;;;;;5057692;28;20048;-77
2022/04/25 01:54:47;;;;;;;12.30;6.15;;;9.70;99.90;;;;;;5059384;28;20020;-76
2022/04/25 01:57:13;;;;;;;12.10;7.00;;;9.60;99.90;;;;;;5058549;28;20262;-76
2022/04/25 01:59:39;;;;;;;11.45;6.55;;;9.60;99.90;;;;;;5057719;28;20028;-76
2022/04/25 02:02:05;;;;;;;13.95;6.90;;;9.70;99.90;;;;;;5058497;28;20027;-76
2022/04/25 02:04:31;;;;;;;14.73;6.78;;;9.70;99.90;;;;;;5058476;28;20036;-76
2022/04/25 02:06:58;;;;;;;11.40;5.95;;;9.60;99.90;;;;;;5057934;28;20029;-76
2022/04/25 02:09:23;;;;;;;12.57;6.90;;;9.50;99.90;;;;;;5059484;28;20135;-77
2022/04/25 02:11:49;;;;;;;8.63;5.25;;;9.70;99.90;;;;;;5059653;28;20052;-76
2022/04/25 02:14:16;;;;;;;12.02;6.20;;;9.70;99.90;;;;;;5059985;28;20068;-75
2022/04/25 02:16:41;;;;;;;12.70;6.13;;;9.70;99.90;;;;;;5058415;28;20025;-76
2022/04/25 02:19:07;;;;;;;11.63;5.85;;;9.60;99.90;;;;;;5059740;28;20024;-76
2022/04/25 02:21:33;;;;;;;9.93;6.18;;;9.60;99.90;;;;;;5060052;28;20250;-76
2022/04/25 02:23:59;;;;;;;9.73;5.45;;;9.60;99.90;;;;;;5075794;28;20028;-77
2022/04/25 02:26:25;;;;;;;9.38;5.03;;;9.60;99.90;;;;;;5058714;28;20252;-77
2022/04/25 02:28:54;;;;;;;8.65;5.78;;;9.60;99.90;;;;;;5060092;28;20021;-77
2022/04/25 02:31:20;;;;;;;7.57;4.93;;;9.60;99.90;;;;;;5059622;28;20024;-76
2022/04/25 02:33:46;;;;;;;9.02;5.25;;;9.60;99.90;;;;;;5059758;28;20025;-76
2022/04/25 02:36:13;;;;;;;8.27;4.82;;;9.60;99.90;;;;;;5059527;28;20154;-76
2022/04/25 02:38:40;;;;;;;8.23;5.68;;;9.60;99.90;;;;;;5058450;28;20029;-77
2022/04/25 02:41:06;;;;;;;11.25;5.65;;;9.60;99.90;;;;;;5059552;28;20067;-77
2022/04/25 02:43:34;;;;;;;8.57;5.05;;;9.60;99.90;;;;;;5059477;28;20027;-76
2022/04/25 02:46:04;;;;;;;9.60;5.25;;;9.60;99.90;;;;;;5054453;28;20032;-76
2022/04/25 02:48:31;;;;;;;11.30;6.38;;;9.60;99.90;;;;;;5039437;28;20059;-76
2022/04/25 02:50:57;;;;;;;11.25;5.40;;;9.60;99.90;;;;;;5049700;28;20052;-76
2022/04/25 02:53:26;;;;;;;12.57;5.68;;;9.50;99.90;;;;;;5058050;28;20044;-76
2022/04/25 02:55:53;;;;;;;10.20;6.10;;;9.50;99.90;;;;;;5050808;28;20028;-76
2022/04/25 02:58:23;;;;;;;12.07;6.45;;;9.50;99.90;;;;;;5060196;28;20029;-76
2022/04/25 03:00:49;;;;;;;12.88;6.50;;;9.40;99.90;;;;;;5059038;28;20031;-76
2022/04/25 03:03:16;;;;;;;10.88;6.65;;;9.40;99.90;;;;;;5059377;28;20048;-76
2022/04/25 03:05:44;;;;;;;13.27;6.20;;;9.40;99.90;;;;;;5059154;28;20013;-76
2022/04/25 03:08:23;;;;;;;14.50;7.32;;;9.30;99.90;;;;;;5059412;28;20116;-76
2022/04/25 03:10:51;;;;;;;15.07;7.27;;;9.30;99.90;;;;;;5058667;28;20080;-76
2022/04/25 03:13:17;;;;;;;11.98;6.57;;;9.20;99.90;;;;;;5038444;28;20595;-76
2022/04/25 03:15:44;;;;;;;13.82;7.30;;;9.20;99.90;;;;;;5039461;28;20060;-76
2022/04/25 03:18:12;;;;;;;19.60;7.65;;;9.10;99.90;;;;;;5038882;28;20336;-77
2022/04/25 03:20:41;;;;;;;18.58;9.15;;;9.10;99.90;;;;;;5042153;28;20025;-76
2022/04/25 03:23:07;;;;;;;16.60;7.35;;;9.20;99.90;;;;;;5042824;28;20052;-77
2022/04/25 03:25:34;;;;;;;15.60;8.00;;;9.30;99.90;;;;;;5043710;28;20028;-76
2022/04/25 03:28:00;;;;;;;16.67;8.82;;;9.30;99.90;;;;;;5043290;28;20045;-76
2022/04/25 03:30:26;;;;;;;16.27;8.20;;;9.40;99.90;;;;;;5043493;28;20021;-77
2022/04/25 03:32:52;;;;;;;15.60;8.95;;;9.40;99.90;;;;;;5043011;28;20037;-75
2022/04/25 03:35:19;;;;;;;13.35;6.88;;;9.30;99.90;;;;;;5042788;28;20036;-77
2022/04/25 03:37:46;;;;;;;11.40;6.72;;;9.30;99.90;;;;;;5042822;28;20029;-77
2022/04/25 03:40:13;;;;;;;14.77;7.60;;;9.20;99.90;;;;;;5042959;28;20092;-77
2022/04/25 03:42:40;;;;;;;11.93;6.63;;;9.20;99.90;;;;;;5042890;28;20030;-76
2022/04/25 03:45:10;;;;;;;12.20;6.57;;;9.20;99.90;;;;;;5042714;28;20296;-77
2022/04/25 03:47:36;;;;;;;10.10;6.70;;;9.10;99.90;;;;;;5042504;28;20195;-76
2022/04/25 03:50:03;;;;;;;13.25;6.93;;;9.00;99.90;;;;;;5042810;28;20293;-76
2022/04/25 03:52:29;;;;;;;13.10;6.80;;;9.00;99.90;;;;;;5042512;28;20033;-77
2022/04/25 03:57:39;;;;;;;13.27;6.70;;;9.00;99.90;;;;;;5042660;28;20029;-76
2022/04/25 04:00:10;;;;;;;13.00;7.20;;;9.10;99.90;;;;;;5041527;28;20021;-76
2022/04/25 04:02:36;;;;;;;12.10;6.25;;;9.10;99.90;;;;;;5041192;28;20036;-77
2022/04/25 04:05:02;;;;;;;14.57;7.35;;;9.20;99.90;;;;;;5042564;28;20041;-76
2022/04/25 04:07:28;;;;;;;11.23;6.35;;;9.20;99.90;;;;;;5041782;28;20029;-77
2022/04/25 04:09:54;;;;;;;14.50;7.00;;;9.20;99.90;;;;;;5041316;28;20026;-76
2022/04/25 04:12:23;;;;;;;12.43;6.13;;;9.30;99.90;;;;;;5042458;28;20037;-78
2022/04/25 04:14:48;;;;;;;16.50;7.32;;;9.30;99.90;;;;;;5041815;28;20125;-77
2022/04/25 04:17:17;;;;;;;12.68;6.40;;;9.30;99.90;;;;;;5040957;28;20037;-77
2022/04/25 04:19:44;;;;;;;15.23;6.97;;;9.30;99.90;;;;;;5041499;28;20367;-77
2022/04/25 04:22:10;;;;;;;10.55;6.90;;;9.40;99.90;;;;;;5039246;28;20503;-78
2022/04/25 04:24:36;;;;;;;16.20;6.93;;;9.40;99.90;;;;;;5041118;28;20067;-77
2022/04/25 04:27:03;;;;;;;17.52;7.03;;;9.40;99.90;;;;;;5040906;28;20025;-77
2022/04/25 04:29:29;;;;;;;14.55;6.05;;;9.40;99.90;;;;;;5040837;28;20220;-77
2022/04/25 04:32:01;;;;;;;12.50;6.43;;;9.30;99.90;;;;;;5040008;28;20033;-76
2022/04/25 04:34:27;;;;;;;11.57;5.72;;;9.30;99.90;;;;;;5039408;28;20021;-76
2022/04/25 04:36:54;;;;;;;10.68;5.78;;;9.20;99.90;;;;;;5040498;28;20095;-76
2022/04/25 04:39:20;;;;;;;11.88;5.97;;;9.20;99.90;;;;;;5040567;28;20034;-76
2022/04/25 04:41:46;;;;;;;9.10;5.70;;;9.30;99.90;;;;;;5040237;28;20347;-76
2022/04/25 04:44:13;;;;;;;14.27;6.97;;;9.20;99.90;;;;;;5040869;28;20056;-76
2022/04/25 04:46:39;;;;;;;10.23;5.20;;;9.10;99.90;;;;;;5039643;28;20040;-77
2022/04/25 04:49:04;;;;;;;11.23;6.22;;;9.20;99.90;;;;;;5040521;28;20024;-77
2022/04/25 04:51:30;;;;;;;10.02;5.70;;;9.10;99.90;;;;;;5038732;28;20299;-76
2022/04/25 04:53:59;;;;;;;12.63;6.88;;;9.20;99.90;;;;;;5040970;28;20021;-76
2022/04/25 04:56:32;;;;;;;9.27;5.88;;;9.20;99.90;;;;;;5040837;28;20041;-75
2022/04/25 04:58:59;;;;;;;13.63;6.13;;;9.20;99.90;;;;;;5040494;28;20031;-76
2022/04/25 05:01:28;;;;;;;9.48;5.80;;;9.20;99.90;;;;;;5040857;28;20021;-77
2022/04/25 05:03:58;;;;;;;9.85;6.20;;;9.20;99.90;;;;;;5040649;28;20021;-76
2022/04/25 05:06:27;;;;;;;;;;;9.20;99.90;;;;;;5041013;28;20767;-76
2022/04/25 05:08:53;;;;;;;9.73;5.18;;;9.30;99.90;;;;;;5040321;28;20125;-76
2022/04/25 05:11:19;;;;;;;11.88;5.85;;;;;;;;;;5039359;28;20174;-76
2022/04/25 05:13:45;;;;;;;10.60;6.15;;;9.40;99.90;;;;;;5032205;28;313592;-76
2022/04/25 05:16:10;;;;;;;10.80;6.05;;;9.60;99.90;;;;;;5053665;28;20030;-76
2022/04/25 05:18:37;;;;;;;12.40;6.75;;;9.60;99.90;;;;;;5041360;28;20040;-77
2022/04/25 05:21:04;;;;;;;10.05;5.63;;;9.70;99.90;;;;;;5041457;28;20096;-79
2022/04/25 05:23:30;;;;;;;11.55;6.35;;;9.80;99.90;;;;;;5040426;28;20104;-76
2022/04/25 05:25:56;;;;;;;10.80;6.25;;;9.90;99.90;;;;;;5042084;28;20073;-74
2022/04/25 05:28:22;;;;;;;9.20;5.40;;;10.00;99.90;;;;;;5039720;28;20494;-74
2022/04/25 05:30:48;;;;;;;14.20;6.53;;;10.10;99.90;;;;;;5045017;28;20051;-74
2022/04/25 05:33:19;;;;;;;8.30;4.55;;;10.20;99.90;;;;;;5049811;28;20045;-74
2022/04/25 05:35:45;;;;;;;10.00;5.25;;;10.30;99.90;;;;;;5042046;28;20018;-74
2022/04/25 05:38:12;;;;;;;7.10;4.32;;;10.40;99.90;;;;;;5041543;28;20635;-74
2022/04/25 05:40:41;;;;;;;6.63;4.07;;;10.40;99.90;;;;;;5037233;28;20035;-74
2022/04/25 05:43:08;;;;;;;9.77;5.22;;;10.40;99.90;;;;;;5033590;28;20018;-78
2022/04/25 05:45:34;;;;;;;6.13;4.15;;;10.40;99.90;;;;;;5032179;28;20030;-75
2022/04/25 05:48:00;;;;;;;11.82;5.93;;;10.50;99.90;;;;;;5043393;28;20029;-74
2022/04/25 05:53:13;;;;;;;7.47;4.65;;;10.70;99.90;;;;;;5040423;28;20222;-74
2022/04/25 05:55:39;;;;;;;6.22;4.72;;;10.90;99.90;;;;;;5030226;28;20073;-74
2022/04/25 05:58:08;;;;;;;6.28;3.97;;;11.00;99.90;;;;;;5030073;28;20050;-76
2022/04/25 06:00:35;;;;;;;6.00;3.97;;;11.20;99.90;;;;;;5028878;28;20032;-74
2022/04/25 06:03:01;;;;;;;5.45;3.72;;;11.20;99.90;;;;;;5027761;28;20195;-74
2022/04/25 06:05:27;;;;;;;6.60;3.78;;;11.40;99.90;;;;;;5031446;28;20018;-74
2022/04/25 06:07:54;;;;;;;4.65;3.55;;;11.70;99.90;;;;;;5030871;28;20104;-75
2022/04/25 06:10:22;;;;;;;4.45;3.30;;;11.70;99.90;;;;;;5032687;28;20231;-75
2022/04/25 06:12:53;;;;;;;5.63;4.40;;;11.70;99.90;;;;;;5033767;28;20033;-77
2022/04/25 06:15:21;;;;;;;4.72;3.28;;;11.70;99.90;;;;;;5035456;28;20038;-74
2022/04/25 06:17:47;;;;;;;4.82;3.53;;;11.60;99.90;;;;;;5034342;28;20040;-74
2022/04/25 06:20:13;;;;;;;5.13;3.67;;;11.60;99.90;;;;;;5051281;28;20068;-74
2022/04/25 06:22:50;;;;;;;4.47;3.65;;;11.60;99.90;;;;;;5033081;28;20497;-75
2022/04/25 06:25:16;;;;;;;4.13;3.35;;;11.60;99.90;;;;;;5034127;28;20024;-76
2022/04/25 06:27:42;;;;;;;5.50;4.30;;;11.50;99.90;;;;;;5033043;28;20438;-74
2022/04/25 06:30:08;;;;;;;4.95;3.72;;;11.50;99.90;;;;;;5056572;28;20540;-74
2022/04/25 06:32:35;;;;;;;6.20;3.20;;;11.50;99.90;;;;;;5059033;28;20033;-74
2022/04/25 06:35:02;;;;;;;5.72;3.25;;;11.50;99.90;;;;;;5063668;28;20046;-78
2022/04/25 06:37:28;;;;;;;4.45;3.50;;;11.60;99.90;;;;;;5052171;28;20038;-74
2022/04/25 06:39:53;;;;;;;4.78;3.97;;;11.50;99.90;;;;;;5053067;28;20081;-75
2022/04/25 06:42:20;;;;;;;4.10;3.42;;;11.60;99.90;;;;;;5060297;28;20024;-75
2022/04/25 06:44:45;;;;;;;4.72;3.00;;;11.70;99.90;;;;;;5047734;28;20021;-75
2022/04/25 06:47:11;;;;;;;4.07;2.97;;;11.90;99.90;;;;;;5038049;28;20067;-75
2022/04/25 06:49:37;;;;;;;3.20;2.85;;;12.00;99.90;;;;;;5039144;28;20075;-75
2022/04/25 06:52:05;;;;;;;3.75;3.10;;;12.10;99.90;;;;;;5037654;28;20055;-76
2022/04/25 06:54:31;;;;;;;3.72;3.30;;;12.10;99.90;;;;;;5036251;28;20030;-75
2022/04/25 06:57:00;;;;;;;3.22;2.92;;;12.20;99.90;;;;;;5057519;28;20271;-75
2022/04/25 06:59:26;;;;;;;5.25;2.97;;;12.20;99.90;;;;;;5055645;28;20026;-75
2022/04/25 07:01:52;;;;;;;5.45;3.78;;;12.20;99.90;;;;;;5046500;28;20511;-75
2022/04/25 07:04:18;;;;;;;4.35;3.28;;;12.20;99.90;;;;;;5061733;28;20025;-76
2022/04/25 07:06:45;;;;;;;6.93;3.72;;;12.30;99.90;;;;;;5048887;28;20402;-76
2022/04/25 07:09:14;;;;;;;3.83;3.10;;;12.30;99.90;;;;;;5057994;28;20094;-75
2022/04/25 07:11:43;;;;;;;5.40;3.83;;;12.40;99.90;;;;;;5058177;28;20232;-76
2022/04/25 07:14:14;;;;;;;5.30;3.47;;;12.10;99.90;;;;;;5073044;28;20053;-75
2022/04/25 07:16:40;;;;;;;4.60;3.65;;;12.30;99.90;;;;;;5059672;28;20017;-75
2022/04/25 07:19:06;;;;;;;4.95;3.88;;;12.20;99.90;;;;;;5057974;28;20310;-75
2022/04/25 07:29:48;;;;;;;4.93;3.58;;;12.30;99.90;;;;;;5058236;28;20028;-76
2022/04/25 07:32:15;;;;;;;7.75;4.75;;;12.60;99.90;;;;;;5060390;28;20090;-74
2022/04/25 07:34:42;;;;;;;4.15;3.20;;;12.80;99.90;;;;;;5076354;28;20240;-75
2022/04/25 07:37:08;;;;;;;6.15;3.85;;;12.90;99.90;;;;;;5060943;28;20162;-75
2022/04/25 07:39:34;;;;;;;3.58;2.40;;;13.10;99.90;;;;;;5060628;28;20087;-74
2022/04/25 07:41:59;;;;;;;2.35;2.00;;;12.90;99.90;;;;;;5051327;28;20029;-75
2022/04/25 07:44:26;;;;;;;3.00;2.17;;;13.10;99.90;;;;;;5056518;28;20025;-75
2022/04/25 07:46:53;;;;;;;1.80;1.70;;;13.30;99.90;;;;;;5060142;28;20075;-76
2022/04/25 07:49:18;;;;;;;2.80;2.20;;;13.60;99.90;;;;;;5052008;28;20013;-75
2022/04/25 07:51:44;;;;;;;1.98;1.83;;;13.10;99.90;;;;;;5061083;28;20324;-74
2022/04/25 07:54:11;;;;;;;2.08;1.83;;;13.30;99.90;;;;;;5060222;28;20025;-75
2022/04/25 07:56:37;;;;;;;2.05;1.95;;;13.20;99.90;;;;;;5040293;28;20013;-76
2022/04/25 07:59:05;;;;;;;1.80;1.63;;;12.90;99.90;;;;;;5042048;28;20309;-75
2022/04/25 08:01:32;;;;;;;2.50;2.30;;;12.80;99.90;;;;;;5039440;28;20084;-76
2022/04/25 08:03:58;;;;;;;2.38;1.80;;;12.60;99.90;;;;;;5040202;28;20128;-78
2022/04/25 08:06:24;;;;;;;1.90;1.67;;;12.60;99.90;;;;;;5044386;28;20018;-76
2022/04/25 08:08:51;;;;;;;1.70;1.60;;;12.50;99.90;;;;;;5053771;28;20021;-76
2022/04/25 08:11:17;;;;;;;2.30;1.88;;;12.40;99.90;;;;;;5050025;28;20175;-77
2022/04/25 08:19:15;;;;;;;3.85;1.80;;;12.20;99.90;;;;;;5049388;28;20102;-76
2022/04/25 08:21:45;;;;;;;1.40;1.30;;;12.00;99.90;;;;;;5048724;28;20025;-76
2022/04/25 08:24:13;;;;;;;;;;;11.90;99.90;;;;;;5049480;28;20036;-78
2022/04/25 08:26:40;;;;;;;1.92;1.80;;;11.60;99.90;;;;;;5048910;28;20262;-75
2022/04/25 08:29:06;;;;;;;1.30;1.20;;;11.40;99.90;;;;;;5051120;28;20028;-77
2022/04/25 08:31:33;;;;;;;2.28;1.90;;;11.30;99.90;;;;;;5052364;28;20025;-76
2022/04/25 08:34:00;;;;;;;1.10;1.00;;;11.10;99.90;;;;;;5049101;28;20032;-75
2022/04/25 08:36:26;;;;;;;2.20;1.13;;;10.90;99.90;;;;;;5049511;28;20352;-74
2022/04/25 08:38:52;;;;;;;2.80;1.13;;;10.70;99.90;;;;;;5049755;28;20437;-74
2022/04/25 08:41:23;;;;;;;0.90;0.90;;;10.60;99.90;;;;;;5049401;28;20071;-74
2022/04/25 08:43:53;;;;;;;1.17;1.08;;;10.40;99.90;;;;;;5040127;28;20524;-74
2022/04/25 08:46:21;;;;;;;;;;;10.00;99.90;;;;;;5030669;28;20120;-75
2022/04/25 08:48:47;;;;;;;4.88;1.80;;;9.90;99.90;;;;;;5028179;28;20258;-76
2022/04/25 08:51:15;;;;;;;3.08;1.40;;;9.80;99.90;;;;;;5029105;28;20033;-76
2022/04/25 08:53:42;;;;;;;2.17;0.90;;;9.80;99.90;;;;;;5030219;28;20101;-76
2022/04/25 08:56:09;;;;;;;0.95;0.90;;;9.80;99.90;;;;;;5029918;28;20181;-74
2022/04/25 08:58:40;;;;;;;2.42;1.08;;;9.70;99.90;;;;;;5029183;28;20033;-74
2022/04/25 09:01:06;;;;;;;2.10;1.35;;;9.60;99.90;;;;;;5027161;28;20029;-74
2022/04/25 09:03:32;;;;;;;3.65;2.10;;;9.60;99.90;;;;;;5027554;28;20037;-76
2022/04/25 09:05:58;;;;;;;1.20;1.10;;;9.60;99.90;;;;;;5028443;28;20451;-74
2022/04/25 09:08:24;;;;;;;1.60;1.50;;;;;;;;;;5028889;28;20029;-74
2022/04/25 09:10:51;;;;;;;1.38;1.27;;;9.70;99.90;;;;;;5028432;28;20773;-74
2022/04/25 09:13:16;;;;;;;1.17;1.08;;;9.80;99.90;;;;;;5028186;28;20043;-75
2022/04/25 09:15:43;;;;;;;1.15;1.05;;;9.90;99.90;;;;;;5026747;28;20417;-76
2022/04/25 09:18:10;;;;;;;1.02;1.02;;;9.90;99.90;;;;;;5027190;28;20043;-76
2022/04/25 09:20:36;;;;;;;1.13;1.10;;;9.90;99.90;;;;;;5028412;28;20100;-76
2022/04/25 09:23:02;;;;;;;1.30;1.20;;;9.90;99.90;;;;;;5027952;28;20025;-77
2022/04/25 09:25:28;;;;;;;1.27;1.17;;;10.00;99.90;;;;;;5028426;28;20029;-76
2022/04/25 09:28:12;;;;;;;1.58;1.42;;;10.10;99.90;;;;;;5026833;28;20175;-75
2022/04/25 09:30:38;;;;;;;1.65;1.15;;;10.20;99.90;;;;;;5028152;28;20387;-75
2022/04/25 09:33:20;;;;;;;2.50;1.05;;;10.30;99.90;;;;;;5027601;28;20065;-76
2022/04/25 09:35:53;;;;;;;1.35;1.25;;;10.40;99.90;;;;;;5027786;28;20021;-75
2022/04/25 09:38:32;;;;;;;1.30;1.20;;;10.80;99.90;;;;;;5028190;28;20025;-75
2022/04/25 09:40:59;;;;;;;2.78;2.17;;;11.10;99.90;;;;;;5026395;28;20425;-76
2022/04/25 09:43:30;;;;;;;1.35;1.25;;;11.50;99.90;;;;;;5034380;28;20033;-75
2022/04/25 09:46:04;;;;;;;1.05;1.05;;;11.90;99.90;;;;;;5046907;28;20017;-76
2022/04/25 09:48:31;;;;;;;1.50;1.25;;;12.30;99.90;;;;;;5047637;28;20417;-75
2022/04/25 09:51:02;;;;;;;1.20;1.10;;;12.60;99.90;;;;;;5047893;28;20025;-75
2022/04/25 09:53:41;;;;;;;1.40;1.20;;;12.60;99.90;;;;;;5045482;28;20040;-77
2022/04/25 09:56:27;;;;;;;1.60;1.50;;;12.60;99.90;;;;;;5046728;28;20105;-76
2022/04/25 09:59:05;;;;;;;1.42;1.25;;;12.50;99.90;;;;;;5046063;28;20060;-75
2022/04/25 10:01:34;;;;;;;1.50;1.40;;;12.50;99.90;;;;;;5046203;28;20487;-75
2022/04/25 10:04:00;;;;;;;;;;;12.40;99.90;;;;;;5046541;28;20057;-74
2022/04/25 10:06:33;;;;;;;1.75;1.65;;;12.70;99.90;;;;;;5045519;28;20344;-74
2022/04/25 10:09:02;;;;;;;1.38;1.27;;;12.70;99.90;;;;;;5046150;28;20478;-74
2022/04/25 10:11:33;;;;;;;1.30;1.20;;;13.00;99.90;;;;;;5045579;28;20047;-75
2022/04/25 10:14:02;;;;;;;1.48;1.38;;;13.30;99.90;;;;;;5046764;28;20056;-74
2022/04/25 10:16:29;;;;;;;1.98;1.80;;;13.50;99.90;;;;;;5048019;28;20025;-74
2022/04/25 10:18:55;;;;;;;2.17;1.48;;;13.40;99.90;;;;;;5055323;28;20056;-74
2022/04/25 10:21:22;;;;;;;2.20;1.27;;;13.60;99.90;;;;;;5055597;28;20028;-74
2022/04/25 10:23:47;;;;;;;2.10;1.90;;;13.90;99.90;;;;;;5050763;28;20047;-78
2022/04/25 10:26:13;;;;;;;1.95;1.85;;;14.20;99.90;;;;;;5056888;28;20325;-75
2022/04/25 10:28:54;;;;;;;2.13;2.03;;;14.60;99.90;;;;;;5057808;28;20021;-74
2022/04/25 10:31:38;;;;;;;2.65;1.73;;;14.80;99.90;;;;;;5058134;28;20283;-75
2022/04/25 10:34:05;;;;;;;2.55;2.35;;;15.10;99.90;;;;;;5048822;28;20366;-74
2022/04/25 10:36:39;;;;;;;2.33;2.13;;;15.50;99.90;;;;;;5048854;28;20362;-76
2022/04/25 10:39:22;;;;;;;3.00;2.10;;;15.40;99.90;;;;;;5048553;28;20036;-76
2022/04/25 10:44:40;;;;;;;2.03;1.83;;;14.80;99.90;;;;;;5032078;28;20394;-76
2022/04/25 10:47:06;;;;;;;2.42;2.28;;;15.20;99.90;;;;;;5026334;28;20084;-75
2022/04/25 10:49:35;;;;;;;3.00;2.70;;;15.10;99.90;;;;;;5026464;28;20481;-77
2022/04/25 10:52:01;;;;;;;;;;;14.50;99.90;;;;;;5030784;28;20080;-76
2022/04/25 10:54:45;;;;;;;3.08;2.80;;;14.50;99.90;;;;;;5025408;28;19909;-74
2022/04/25 10:57:11;;;;;;;3.72;3.33;;;14.50;99.90;;;;;;5025279;28;20029;-76
2022/04/25 10:59:40;;;;;;;2.67;2.47;;;14.40;99.90;;;;;;5025436;28;20048;-74
2022/04/25 11:02:23;;;;;;;3.50;2.80;;;14.80;99.90;;;;;;5026423;28;20021;-75
2022/04/25 11:05:11;;;;;;;2.45;2.25;;;14.70;99.90;;;;;;5026839;28;20040;-75
2022/04/25 11:07:41;;;;;;;6.37;2.90;;;15.00;99.90;;;;;;5015976;28;20265;-74
2022/04/25 11:10:11;;;;;;;2.85;2.65;;;14.70;99.90;;;;;;5026839;28;20871;-77
2022/04/25 11:13:03;;;;;;;4.15;3.75;;;14.90;99.90;;;;;;5025435;28;20596;-74
2022/04/25 11:15:45;;;;;;;4.88;3.45;;;15.30;99.90;;;;;;5023866;28;20601;-74
2022/04/25 11:18:22;;;;;;;3.55;2.83;;;14.90;99.90;;;;;;5026879;28;20041;-74
2022/04/25 11:20:55;;;;;;;2.83;2.53;;;15.20;99.90;;;;;;5026744;28;20024;-77
2022/04/25 11:23:28;;;;;;;3.75;3.00;;;15.60;99.90;;;;;;5026416;28;20032;-74
2022/04/25 11:25:59;;;;;;;3.88;2.92;;;15.50;99.90;;;;;;5027072;28;20047;-74
2022/04/25 11:28:26;;;;;;;4.75;2.97;;;15.40;99.90;;;;;;5026808;28;20025;-76
2022/04/25 11:31:13;;;;;;;4.47;3.22;;;15.10;99.90;;;;;;5027135;28;20285;-76
2022/04/25 11:33:44;;;;;;;4.03;3.15;;;14.80;99.90;;;;;;5026746;28;20044;-75
2022/04/25 11:36:11;;;;;;;4.45;3.65;;;14.80;99.90;;;;;;5026320;28;20040;-75
2022/04/25 11:41:28;;;;;;;3.88;3.15;;;14.90;99.90;;;;;;5028888;28;20391;-76
2022/04/25 11:43:53;;;;;;;3.80;3.45;;;15.30;99.90;;;;;;5041231;28;20120;-76
2022/04/25 11:46:19;;;;;;;4.45;3.72;;;15.30;99.90;;;;;;5050029;28;20100;-76
2022/04/25 11:48:53;;;;;;;2.95;2.72;;;15.40;99.90;;;;;;5050380;28;20009;-75
2022/04/25 11:51:35;;;;;;;3.90;3.60;;;15.90;99.90;;;;;;5050036;28;20175;-76
2022/04/25 11:54:04;;;;;;;4.28;3.58;;;15.60;99.90;;;;;;5051600;28;20033;-76
2022/04/25 11:56:34;;;;;;;4.93;3.58;;;15.60;99.90;;;;;;5050003;28;20029;-76
2022/04/25 11:59:07;;;;;;;4.32;3.75;;;15.60;99.90;;;;;;5049329;28;20032;-76
2022/04/25 12:01:38;;;;;;;4.30;3.67;;;16.10;99.90;;;;;;5049445;28;20110;-76
2022/04/25 12:04:41;;;;;;;4.35;3.95;;;16.80;99.90;;;;;;5049870;28;20029;-76
2022/04/25 12:07:11;;;;;;;4.50;3.97;;;17.90;99.90;;;;;;5046258;28;20029;-75
2022/04/25 12:15:38;;;;;;;3.70;3.40;;;18.50;99.90;;;;;;5048616;28;20142;-78
2022/04/25 12:18:24;;;;;;;8.07;3.88;;;17.40;99.90;;;;;;5049147;28;20114;-77
2022/04/25 12:21:13;;;;;;;3.78;3.47;;;17.10;99.90;;;;;;5048994;28;20132;-77
2022/04/25 12:23:50;;;;;;;5.53;3.65;;;17.30;99.90;;;;;;5049110;28;20075;-76
2022/04/25 12:26:22;;;;;;;4.13;3.50;;;17.90;99.90;;;;;;5048429;28;20393;-75
2022/04/25 12:29:00;;;;;;;5.55;3.30;;;18.50;93.30;;;;;;5049024;28;20044;-75
2022/04/25 12:31:30;;;;;;;3.47;3.17;;;17.70;95.20;;;;;;5048438;28;20032;-75
2022/04/25 12:34:06;;;;;;;5.88;4.40;;;18.40;95.50;;;;;;5048340;28;20060;-75
2022/04/25 12:36:32;;;;;;;3.13;2.80;;;19.60;93.50;;;;;;5048276;28;20028;-75
2022/04/25 12:39:01;;;;;;;3.53;3.22;;;19.90;83.40;;;;;;5048714;28;20033;-75
2022/04/25 12:41:35;;;;;;;5.50;2.97;;;19.80;86.00;;;;;;5048171;28;20025;-76
2022/04/25 12:44:10;;;;;;;3.33;2.80;;;20.40;73.90;;;;;;5036933;28;20473;-76
2022/04/25 12:46:47;;;;;;;3.15;2.85;;;19.60;84.70;;;;;;5028411;28;20108;-75
2022/04/25 12:49:20;;;;;;;5.18;3.40;;;18.90;76.50;;;;;;5028540;28;20044;-75
2022/04/25 12:51:58;;;;;;;3.50;3.20;;;18.60;82.60;;;;;;5027781;28;20025;-75
2022/04/25 12:54:31;;;;;;;3.45;2.92;;;18.90;79.40;;;;;;5027373;28;20025;-77
2022/04/25 12:57:10;;;;;;;3.42;3.13;;;18.90;76.70;;;;;;5027532;28;20036;-76
2022/04/25 12:59:36;;;;;;;3.72;3.33;;;19.00;83.40;;;;;;5028788;28;20040;-76
2022/04/25 13:02:09;;;;;;;4.13;3.15;;;19.20;92.30;;;;;;5026429;28;20096;-77
2022/04/25 13:04:51;;;;;;;2.90;2.70;;;19.10;92.60;;;;;;5028040;28;20026;-75
2022/04/25 13:07:31;;;;;;;2.75;2.55;;;19.80;94.10;;;;;;5027993;28;20033;-74
2022/04/25 13:09:59;;;;;;;2.88;2.67;;;20.30;90.70;;;;;;5027952;28;20036;-75
2022/04/25 13:12:32;;;;;;;4.68;2.67;;;20.50;94.00;;;;;;5027602;28;20486;-74
2022/04/25 13:14:59;;;;;;;2.35;2.15;;;20.90;83.40;;;;;;5027821;28;20099;-74
2022/04/25 13:17:25;;;;;;;2.83;2.17;;;21.00;74.50;;;;;;5028058;28;20052;-75
2022/04/25 13:19:50;;;;;;;4.82;3.08;;;20.70;81.60;;;;;;5028328;28;20072;-75
2022/04/25 13:22:16;;;;;;;2.63;2.42;;;21.70;77.60;;;;;;5027844;28;20030;-76
2022/04/25 13:24:43;;;;;;;3.47;2.20;;;21.40;76.00;;;;;;5028017;28;20474;-76
2022/04/25 13:27:09;;;;;;;2.72;2.53;;;21.00;78.60;;;;;;5027393;28;20438;-74
2022/04/25 13:29:35;;;;;;;2.60;2.40;;;21.40;78.30;;;;;;5027803;28;20025;-75
2022/04/25 13:32:02;;;;;;;3.17;2.97;;;20.50;78.50;;;;;;5026993;28;20115;-74